sensor_id;sensor_type;location;lat;lon;timestamp;temperature;humidity
68924;DHT22;55961;52.156;20.942;2024-02-14T00:01:37;5.00;89.00
68924;DHT22;55961;52.156;20.942;2024-02-14T00:04:03;5.00;89.00
68924;DHT22;55961;52.156;20.942;2024-02-14T00:06:34;5.00;89.30
68924;DHT22;55961;52.156;20.942;2024-02-14T00:09:00;5.00;89.20
68924;DHT22;55961;52.156;20.942;2024-02-14T00:11:26;5.00;89.30
68924;DHT22;55961;52.156;20.942;2024-02-14T00:13:52;5.00;89.30
68924;DHT22;55961;52.156;20.942;2024-02-14T00:16:18;5.00;89.30
68924;DHT22;55961;52.156;20.942;2024-02-14T00:18:44;5.00;89.40
68924;DHT22;55961;52.156;20.942;2024-02-14T00:21:10;5.00;89.50
68924;DHT22;55961;52.156;20.942;2024-02-14T00:23:35;4.90;89.60
68924;DHT22;55961;52.156;20.942;2024-02-14T00:26:02;4.90;89.80
68924;DHT22;55961;52.156;20.942;2024-02-14T00:28:28;4.90;89.80
68924;DHT22;55961;52.156;20.942;2024-02-14T00:30:54;4.90;89.90
68924;DHT22;55961;52.156;20.942;2024-02-14T00:33:20;4.90;89.90
68924;DHT22;55961;52.156;20.942;2024-02-14T00:35:47;4.90;89.90
68924;DHT22;55961;52.156;20.942;2024-02-14T00:38:13;4.90;90.00
68924;DHT22;55961;52.156;20.942;2024-02-14T00:40:39;4.90;90.00
68924;DHT22;55961;52.156;20.942;2024-02-14T00:43:05;4.90;90.10
68924;DHT22;55961;52.156;20.942;2024-02-14T00:45:31;4.90;90.00
68924;DHT22;55961;52.156;20.942;2024-02-14T00:47:57;4.90;90.20
68924;DHT22;55961;52.156;20.942;2024-02-14T00:50:23;4.90;90.10
68924;DHT22;55961;52.156;20.942;2024-02-14T00:52:49;4.90;90.10
68924;DHT22;55961;52.156;20.942;2024-02-14T00:55:15;4.90;90.40
68924;DHT22;55961;52.156;20.942;2024-02-14T00:57:41;4.90;90.30
68924;DHT22;55961;52.156;20.942;2024-02-14T01:00:07;4.90;90.30
68924;DHT22;55961;52.156;20.942;2024-02-14T01:02:34;4.90;90.40
68924;DHT22;55961;52.156;20.942;2024-02-14T01:05:00;4.90;90.50
68924;DHT22;55961;52.156;20.942;2024-02-14T01:07:26;4.80;90.60
68924;DHT22;55961;52.156;20.942;2024-02-14T01:09:52;4.90;90.70
68924;DHT22;55961;52.156;20.942;2024-02-14T01:12:18;4.80;90.80
68924;DHT22;55961;52.156;20.942;2024-02-14T01:14:45;4.80;90.60
68924;DHT22;55961;52.156;20.942;2024-02-14T01:17:10;4.80;90.70
68924;DHT22;55961;52.156;20.942;2024-02-14T01:19:37;4.80;90.70
68924;DHT22;55961;52.156;20.942;2024-02-14T01:22:02;4.80;90.70
68924;DHT22;55961;52.156;20.942;2024-02-14T01:24:29;4.80;90.70
68924;DHT22;55961;52.156;20.942;2024-02-14T01:26:56;4.70;90.80
68924;DHT22;55961;52.156;20.942;2024-02-14T01:29:22;4.60;90.70
68924;DHT22;55961;52.156;20.942;2024-02-14T01:31:49;4.60;90.90
68924;DHT22;55961;52.156;20.942;2024-02-14T01:34:16;4.60;90.90
68924;DHT22;55961;52.156;20.942;2024-02-14T01:36:41;4.50;90.90
68924;DHT22;55961;52.156;20.942;2024-02-14T01:39:07;4.50;90.80
68924;DHT22;55961;52.156;20.942;2024-02-14T01:41:54;4.40;90.70
68924;DHT22;55961;52.156;20.942;2024-02-14T01:44:21;4.40;91.00
68924;DHT22;55961;52.156;20.942;2024-02-14T01:46:47;4.30;91.30
68924;DHT22;55961;52.156;20.942;2024-02-14T01:49:14;4.30;91.50
68924;DHT22;55961;52.156;20.942;2024-02-14T01:51:43;4.20;91.60
68924;DHT22;55961;52.156;20.942;2024-02-14T01:54:12;4.20;91.60
68924;DHT22;55961;52.156;20.942;2024-02-14T01:56:39;4.10;91.40
68924;DHT22;55961;52.156;20.942;2024-02-14T01:59:05;4.00;91.60
68924;DHT22;55961;52.156;20.942;2024-02-14T02:01:32;4.00;92.00
68924;DHT22;55961;52.156;20.942;2024-02-14T02:03:58;4.00;92.00
68924;DHT22;55961;52.156;20.942;2024-02-14T02:06:24;3.90;92.20
68924;DHT22;55961;52.156;20.942;2024-02-14T02:08:52;3.80;92.50
68924;DHT22;55961;52.156;20.942;2024-02-14T02:11:18;3.80;92.60
68924;DHT22;55961;52.156;20.942;2024-02-14T02:13:44;3.70;92.80
68924;DHT22;55961;52.156;20.942;2024-02-14T02:16:10;3.70;92.90
68924;DHT22;55961;52.156;20.942;2024-02-14T02:18:37;3.60;92.90
68924;DHT22;55961;52.156;20.942;2024-02-14T02:21:03;3.60;93.10
68924;DHT22;55961;52.156;20.942;2024-02-14T02:23:35;3.60;93.00
68924;DHT22;55961;52.156;20.942;2024-02-14T02:26:01;3.60;92.90
68924;DHT22;55961;52.156;20.942;2024-02-14T02:28:28;3.50;92.90
68924;DHT22;55961;52.156;20.942;2024-02-14T02:30:54;3.50;92.90
68924;DHT22;55961;52.156;20.942;2024-02-14T02:33:22;3.40;93.00
68924;DHT22;55961;52.156;20.942;2024-02-14T02:35:48;3.40;92.70
68924;DHT22;55961;52.156;20.942;2024-02-14T02:38:16;3.40;92.70
68924;DHT22;55961;52.156;20.942;2024-02-14T02:40:43;3.40;92.60
68924;DHT22;55961;52.156;20.942;2024-02-14T02:43:09;3.30;92.50
68924;DHT22;55961;52.156;20.942;2024-02-14T02:45:36;3.30;92.40
68924;DHT22;55961;52.156;20.942;2024-02-14T02:48:02;3.30;92.40
68924;DHT22;55961;52.156;20.942;2024-02-14T02:50:28;3.20;92.20
68924;DHT22;55961;52.156;20.942;2024-02-14T02:52:56;3.20;92.20
68924;DHT22;55961;52.156;20.942;2024-02-14T02:55:22;3.20;92.00
68924;DHT22;55961;52.156;20.942;2024-02-14T02:57:49;3.10;92.00
68924;DHT22;55961;52.156;20.942;2024-02-14T03:00:15;3.10;91.90
68924;DHT22;55961;52.156;20.942;2024-02-14T03:02:42;3.00;91.90
68924;DHT22;55961;52.156;20.942;2024-02-14T03:05:10;3.00;91.90
68924;DHT22;55961;52.156;20.942;2024-02-14T03:07:46;2.90;91.80
68924;DHT22;55961;52.156;20.942;2024-02-14T03:10:14;2.90;91.80
68924;DHT22;55961;52.156;20.942;2024-02-14T03:12:49;2.80;91.60
68924;DHT22;55961;52.156;20.942;2024-02-14T03:15:16;2.80;91.50
68924;DHT22;55961;52.156;20.942;2024-02-14T03:17:42;2.70;91.60
68924;DHT22;55961;52.156;20.942;2024-02-14T03:20:08;2.70;91.50
68924;DHT22;55961;52.156;20.942;2024-02-14T03:22:42;2.70;91.40
68924;DHT22;55961;52.156;20.942;2024-02-14T03:25:19;2.60;91.50
68924;DHT22;55961;52.156;20.942;2024-02-14T03:27:46;2.60;91.50
68924;DHT22;55961;52.156;20.942;2024-02-14T03:30:17;2.50;91.40
68924;DHT22;55961;52.156;20.942;2024-02-14T03:32:43;2.50;91.40
68924;DHT22;55961;52.156;20.942;2024-02-14T03:35:09;2.40;91.30
68924;DHT22;55961;52.156;20.942;2024-02-14T03:37:38;2.40;91.30
68924;DHT22;55961;52.156;20.942;2024-02-14T03:40:05;2.40;91.20
68924;DHT22;55961;52.156;20.942;2024-02-14T03:42:34;2.30;91.20
68924;DHT22;55961;52.156;20.942;2024-02-14T03:45:00;2.30;91.20
68924;DHT22;55961;52.156;20.942;2024-02-14T03:47:32;2.20;91.30
68924;DHT22;55961;52.156;20.942;2024-02-14T03:50:01;2.20;91.30
68924;DHT22;55961;52.156;20.942;2024-02-14T03:52:28;2.20;91.30
68924;DHT22;55961;52.156;20.942;2024-02-14T03:54:55;2.10;91.30
68924;DHT22;55961;52.156;20.942;2024-02-14T03:57:21;2.10;91.30
68924;DHT22;55961;52.156;20.942;2024-02-14T03:59:47;2.00;91.20
68924;DHT22;55961;52.156;20.942;2024-02-14T04:02:13;2.00;91.20
68924;DHT22;55961;52.156;20.942;2024-02-14T04:04:42;1.90;91.10
68924;DHT22;55961;52.156;20.942;2024-02-14T04:07:09;1.90;91.10
68924;DHT22;55961;52.156;20.942;2024-02-14T04:09:35;1.80;91.20
68924;DHT22;55961;52.156;20.942;2024-02-14T04:12:01;1.80;91.00
68924;DHT22;55961;52.156;20.942;2024-02-14T04:14:27;1.70;90.90
68924;DHT22;55961;52.156;20.942;2024-02-14T04:16:54;1.70;91.00
68924;DHT22;55961;52.156;20.942;2024-02-14T04:19:20;1.60;91.00
68924;DHT22;55961;52.156;20.942;2024-02-14T04:21:46;1.60;91.00
68924;DHT22;55961;52.156;20.942;2024-02-14T04:24:12;1.50;90.90
68924;DHT22;55961;52.156;20.942;2024-02-14T04:26:38;1.50;91.00
68924;DHT22;55961;52.156;20.942;2024-02-14T04:29:04;1.50;91.00
68924;DHT22;55961;52.156;20.942;2024-02-14T04:31:30;1.40;91.10
68924;DHT22;55961;52.156;20.942;2024-02-14T04:33:58;1.40;91.00
68924;DHT22;55961;52.156;20.942;2024-02-14T04:36:24;1.40;91.00
68924;DHT22;55961;52.156;20.942;2024-02-14T04:38:50;1.30;90.80
68924;DHT22;55961;52.156;20.942;2024-02-14T04:41:17;1.30;90.90
68924;DHT22;55961;52.156;20.942;2024-02-14T04:43:43;1.30;91.00
68924;DHT22;55961;52.156;20.942;2024-02-14T04:46:09;1.20;91.10
68924;DHT22;55961;52.156;20.942;2024-02-14T04:48:35;1.20;91.20
68924;DHT22;55961;52.156;20.942;2024-02-14T04:51:03;1.20;91.20
68924;DHT22;55961;52.156;20.942;2024-02-14T04:53:30;1.10;91.10
68924;DHT22;55961;52.156;20.942;2024-02-14T04:55:56;1.10;91.10
68924;DHT22;55961;52.156;20.942;2024-02-14T04:58:22;1.10;91.20
68924;DHT22;55961;52.156;20.942;2024-02-14T05:00:49;1.00;91.30
68924;DHT22;55961;52.156;20.942;2024-02-14T05:03:15;1.00;91.70
68924;DHT22;55961;52.156;20.942;2024-02-14T05:05:41;1.00;91.80
68924;DHT22;55961;52.156;20.942;2024-02-14T05:08:07;1.00;92.10
68924;DHT22;55961;52.156;20.942;2024-02-14T05:10:33;0.90;92.40
68924;DHT22;55961;52.156;20.942;2024-02-14T05:12:59;0.90;92.50
68924;DHT22;55961;52.156;20.942;2024-02-14T05:15:26;0.90;92.70
68924;DHT22;55961;52.156;20.942;2024-02-14T05:17:52;0.90;92.70
68924;DHT22;55961;52.156;20.942;2024-02-14T05:20:18;0.90;92.60
68924;DHT22;55961;52.156;20.942;2024-02-14T05:22:44;0.90;92.60
68924;DHT22;55961;52.156;20.942;2024-02-14T05:25:10;0.80;92.70
68924;DHT22;55961;52.156;20.942;2024-02-14T05:27:36;0.80;92.60
68924;DHT22;55961;52.156;20.942;2024-02-14T05:30:04;0.80;92.70
68924;DHT22;55961;52.156;20.942;2024-02-14T05:32:34;0.80;92.80
68924;DHT22;55961;52.156;20.942;2024-02-14T05:35:01;0.80;92.80
68924;DHT22;55961;52.156;20.942;2024-02-14T05:37:28;0.80;92.80
68924;DHT22;55961;52.156;20.942;2024-02-14T05:39:55;0.70;92.60
68924;DHT22;55961;52.156;20.942;2024-02-14T05:42:21;0.70;92.80
68924;DHT22;55961;52.156;20.942;2024-02-14T05:44:48;0.70;92.70
68924;DHT22;55961;52.156;20.942;2024-02-14T05:47:14;0.70;92.80
68924;DHT22;55961;52.156;20.942;2024-02-14T05:49:40;0.60;92.80
68924;DHT22;55961;52.156;20.942;2024-02-14T05:52:07;0.60;93.10
68924;DHT22;55961;52.156;20.942;2024-02-14T05:54:33;0.60;93.10
68924;DHT22;55961;52.156;20.942;2024-02-14T05:57:00;0.60;93.20
68924;DHT22;55961;52.156;20.942;2024-02-14T05:59:28;0.60;93.00
68924;DHT22;55961;52.156;20.942;2024-02-14T06:01:53;0.50;93.00
68924;DHT22;55961;52.156;20.942;2024-02-14T06:04:19;0.50;93.30
68924;DHT22;55961;52.156;20.942;2024-02-14T06:06:45;0.50;93.10
68924;DHT22;55961;52.156;20.942;2024-02-14T06:09:11;0.50;93.00
68924;DHT22;55961;52.156;20.942;2024-02-14T06:11:38;0.50;93.30
68924;DHT22;55961;52.156;20.942;2024-02-14T06:14:06;0.50;93.20
68924;DHT22;55961;52.156;20.942;2024-02-14T06:16:32;0.50;93.20
68924;DHT22;55961;52.156;20.942;2024-02-14T06:18:59;0.50;93.20
68924;DHT22;55961;52.156;20.942;2024-02-14T06:21:25;0.40;93.50
68924;DHT22;55961;52.156;20.942;2024-02-14T06:23:52;0.40;93.80
68924;DHT22;55961;52.156;20.942;2024-02-14T06:26:18;0.40;93.60
68924;DHT22;55961;52.156;20.942;2024-02-14T06:28:45;0.40;93.90
68924;DHT22;55961;52.156;20.942;2024-02-14T06:31:11;0.40;94.00
68924;DHT22;55961;52.156;20.942;2024-02-14T06:33:37;0.40;94.20
68924;DHT22;55961;52.156;20.942;2024-02-14T06:36:04;0.50;94.50
68924;DHT22;55961;52.156;20.942;2024-02-14T06:38:33;0.50;94.70
68924;DHT22;55961;52.156;20.942;2024-02-14T06:40:59;0.60;95.10
68924;DHT22;55961;52.156;20.942;2024-02-14T06:43:26;0.60;95.70
68924;DHT22;55961;52.156;20.942;2024-02-14T06:45:52;0.70;96.40
68924;DHT22;55961;52.156;20.942;2024-02-14T06:48:18;0.80;97.00
68924;DHT22;55961;52.156;20.942;2024-02-14T06:50:47;0.80;97.60
68924;DHT22;55961;52.156;20.942;2024-02-14T06:53:13;0.90;97.70
68924;DHT22;55961;52.156;20.942;2024-02-14T06:55:39;1.00;98.30
68924;DHT22;55961;52.156;20.942;2024-02-14T06:58:05;1.00;98.50
68924;DHT22;55961;52.156;20.942;2024-02-14T07:00:31;1.10;99.10
68924;DHT22;55961;52.156;20.942;2024-02-14T07:02:57;1.10;99.10
68924;DHT22;55961;52.156;20.942;2024-02-14T07:05:22;1.10;99.10
68924;DHT22;55961;52.156;20.942;2024-02-14T07:07:49;1.20;99.20
68924;DHT22;55961;52.156;20.942;2024-02-14T07:10:15;1.20;99.10
68924;DHT22;55961;52.156;20.942;2024-02-14T07:12:41;1.30;99.50
68924;DHT22;55961;52.156;20.942;2024-02-14T07:15:07;1.30;99.50
68924;DHT22;55961;52.156;20.942;2024-02-14T07:17:34;1.30;99.90
68924;DHT22;55961;52.156;20.942;2024-02-14T07:20:00;1.30;99.90
68924;DHT22;55961;52.156;20.942;2024-02-14T07:22:26;1.40;99.90
68924;DHT22;55961;52.156;20.942;2024-02-14T07:24:52;1.40;99.90
68924;DHT22;55961;52.156;20.942;2024-02-14T07:27:19;1.50;99.90
68924;DHT22;55961;52.156;20.942;2024-02-14T07:29:46;1.50;99.90
68924;DHT22;55961;52.156;20.942;2024-02-14T07:32:12;1.60;99.90
68924;DHT22;55961;52.156;20.942;2024-02-14T07:34:39;1.60;99.90
68924;DHT22;55961;52.156;20.942;2024-02-14T07:37:05;1.70;99.90
68924;DHT22;55961;52.156;20.942;2024-02-14T07:39:31;1.80;99.90
68924;DHT22;55961;52.156;20.942;2024-02-14T07:41:57;1.80;99.90
68924;DHT22;55961;52.156;20.942;2024-02-14T07:44:23;1.90;99.90
68924;DHT22;55961;52.156;20.942;2024-02-14T07:46:49;2.00;99.90
68924;DHT22;55961;52.156;20.942;2024-02-14T07:49:15;2.00;99.90
68924;DHT22;55961;52.156;20.942;2024-02-14T07:51:41;2.10;99.90
68924;DHT22;55961;52.156;20.942;2024-02-14T07:54:07;2.10;99.90
68924;DHT22;55961;52.156;20.942;2024-02-14T07:56:33;2.20;99.90
68924;DHT22;55961;52.156;20.942;2024-02-14T07:58:59;2.30;99.90
68924;DHT22;55961;52.156;20.942;2024-02-14T08:01:26;2.30;99.90
68924;DHT22;55961;52.156;20.942;2024-02-14T08:03:51;2.40;99.90
68924;DHT22;55961;52.156;20.942;2024-02-14T08:06:17;2.50;99.90
68924;DHT22;55961;52.156;20.942;2024-02-14T08:08:43;2.50;99.90
68924;DHT22;55961;52.156;20.942;2024-02-14T08:11:15;2.60;99.90
68924;DHT22;55961;52.156;20.942;2024-02-14T08:13:40;2.70;99.90
68924;DHT22;55961;52.156;20.942;2024-02-14T08:16:07;2.80;99.90
68924;DHT22;55961;52.156;20.942;2024-02-14T08:18:33;2.90;99.90
68924;DHT22;55961;52.156;20.942;2024-02-14T08:20:59;3.00;99.90
68924;DHT22;55961;52.156;20.942;2024-02-14T08:23:25;3.00;99.90
68924;DHT22;55961;52.156;20.942;2024-02-14T08:25:51;3.10;99.90
68924;DHT22;55961;52.156;20.942;2024-02-14T08:28:16;3.20;99.90
68924;DHT22;55961;52.156;20.942;2024-02-14T08:30:47;3.20;99.90
68924;DHT22;55961;52.156;20.942;2024-02-14T08:33:13;3.30;99.90
68924;DHT22;55961;52.156;20.942;2024-02-14T08:35:39;3.40;99.00
68924;DHT22;55961;52.156;20.942;2024-02-14T08:38:05;3.50;98.60
68924;DHT22;55961;52.156;20.942;2024-02-14T08:40:32;3.60;98.20
68924;DHT22;55961;52.156;20.942;2024-02-14T08:42:58;3.70;98.00
68924;DHT22;55961;52.156;20.942;2024-02-14T08:45:26;3.80;96.70
68924;DHT22;55961;52.156;20.942;2024-02-14T08:47:55;3.90;96.30
68924;DHT22;55961;52.156;20.942;2024-02-14T08:50:22;4.00;96.20
68924;DHT22;55961;52.156;20.942;2024-02-14T08:52:48;4.00;95.40
68924;DHT22;55961;52.156;20.942;2024-02-14T08:55:14;4.10;94.60
68924;DHT22;55961;52.156;20.942;2024-02-14T08:57:43;4.30;93.40
68924;DHT22;55961;52.156;20.942;2024-02-14T09:00:09;4.40;93.00
68924;DHT22;55961;52.156;20.942;2024-02-14T09:02:36;4.40;92.30
68924;DHT22;55961;52.156;20.942;2024-02-14T09:05:03;4.60;92.70
68924;DHT22;55961;52.156;20.942;2024-02-14T09:07:31;4.70;92.70
68924;DHT22;55961;52.156;20.942;2024-02-14T09:10:00;4.70;91.20
68924;DHT22;55961;52.156;20.942;2024-02-14T09:12:25;4.90;90.00
68924;DHT22;55961;52.156;20.942;2024-02-14T09:14:51;5.00;89.90
68924;DHT22;55961;52.156;20.942;2024-02-14T09:17:17;5.10;89.10
68924;DHT22;55961;52.156;20.942;2024-02-14T09:19:44;5.10;87.70
68924;DHT22;55961;52.156;20.942;2024-02-14T09:22:09;5.20;87.40
68924;DHT22;55961;52.156;20.942;2024-02-14T09:24:35;5.30;87.40
68924;DHT22;55961;52.156;20.942;2024-02-14T09:27:01;5.40;86.80
68924;DHT22;55961;52.156;20.942;2024-02-14T09:29:28;5.60;85.70
68924;DHT22;55961;52.156;20.942;2024-02-14T09:31:54;5.60;85.60
68924;DHT22;55961;52.156;20.942;2024-02-14T09:34:20;5.80;84.90
68924;DHT22;55961;52.156;20.942;2024-02-14T09:36:50;5.90;83.60
68924;DHT22;55961;52.156;20.942;2024-02-14T09:39:18;6.10;83.90
68924;DHT22;55961;52.156;20.942;2024-02-14T09:41:46;6.20;82.20
68924;DHT22;55961;52.156;20.942;2024-02-14T09:44:17;6.30;81.60
68924;DHT22;55961;52.156;20.942;2024-02-14T09:46:43;6.50;79.60
68924;DHT22;55961;52.156;20.942;2024-02-14T09:49:10;6.60;79.00
68924;DHT22;55961;52.156;20.942;2024-02-14T09:51:38;6.70;78.00
68924;DHT22;55961;52.156;20.942;2024-02-14T09:54:04;6.80;79.00
68924;DHT22;55961;52.156;20.942;2024-02-14T09:56:31;7.00;77.60
68924;DHT22;55961;52.156;20.942;2024-02-14T09:58:58;7.10;77.10
68924;DHT22;55961;52.156;20.942;2024-02-14T10:01:26;7.20;76.50
68924;DHT22;55961;52.156;20.942;2024-02-14T10:03:54;7.30;75.40
68924;DHT22;55961;52.156;20.942;2024-02-14T10:06:21;7.50;73.90
68924;DHT22;55961;52.156;20.942;2024-02-14T10:08:50;7.60;75.00
68924;DHT22;55961;52.156;20.942;2024-02-14T10:11:17;7.80;72.80
68924;DHT22;55961;52.156;20.942;2024-02-14T10:13:47;8.00;71.80
68924;DHT22;55961;52.156;20.942;2024-02-14T10:16:17;8.20;71.00
68924;DHT22;55961;52.156;20.942;2024-02-14T10:18:45;8.30;71.10
68924;DHT22;55961;52.156;20.942;2024-02-14T10:21:16;8.40;71.00
68924;DHT22;55961;52.156;20.942;2024-02-14T10:23:45;8.60;69.50
68924;DHT22;55961;52.156;20.942;2024-02-14T10:26:16;8.70;68.60
68924;DHT22;55961;52.156;20.942;2024-02-14T10:28:43;8.90;67.70
68924;DHT22;55961;52.156;20.942;2024-02-14T10:31:10;9.00;65.80
68924;DHT22;55961;52.156;20.942;2024-02-14T10:33:36;9.10;66.90
68924;DHT22;55961;52.156;20.942;2024-02-14T10:36:03;9.30;66.40
68924;DHT22;55961;52.156;20.942;2024-02-14T10:38:33;9.40;62.50
68924;DHT22;55961;52.156;20.942;2024-02-14T10:41:03;9.60;60.60
68924;DHT22;55961;52.156;20.942;2024-02-14T10:43:29;9.70;58.20
68924;DHT22;55961;52.156;20.942;2024-02-14T10:45:56;9.70;57.40
68924;DHT22;55961;52.156;20.942;2024-02-14T10:48:24;9.70;55.90
68924;DHT22;55961;52.156;20.942;2024-02-14T10:50:54;9.70;56.60
68924;DHT22;55961;52.156;20.942;2024-02-14T10:53:26;9.60;56.10
68924;DHT22;55961;52.156;20.942;2024-02-14T10:55:55;9.70;56.80
68924;DHT22;55961;52.156;20.942;2024-02-14T10:58:24;9.60;57.50
68924;DHT22;55961;52.156;20.942;2024-02-14T11:00:52;9.70;56.80
68924;DHT22;55961;52.156;20.942;2024-02-14T11:03:19;9.60;56.40
68924;DHT22;55961;52.156;20.942;2024-02-14T11:05:46;9.60;56.60
68924;DHT22;55961;52.156;20.942;2024-02-14T11:08:19;9.50;56.20
68924;DHT22;55961;52.156;20.942;2024-02-14T11:10:55;9.60;55.80
68924;DHT22;55961;52.156;20.942;2024-02-14T11:13:29;9.60;56.00
68924;DHT22;55961;52.156;20.942;2024-02-14T11:15:59;9.60;55.90
68924;DHT22;55961;52.156;20.942;2024-02-14T11:18:27;9.70;56.20
68924;DHT22;55961;52.156;20.942;2024-02-14T11:20:55;9.70;55.50
68924;DHT22;55961;52.156;20.942;2024-02-14T11:23:22;9.80;53.90
68924;DHT22;55961;52.156;20.942;2024-02-14T11:25:48;9.90;54.00
68924;DHT22;55961;52.156;20.942;2024-02-14T11:30:41;10.10;54.40
68924;DHT22;55961;52.156;20.942;2024-02-14T11:33:14;10.30;54.10
68924;DHT22;55961;52.156;20.942;2024-02-14T11:35:41;10.40;52.90
68924;DHT22;55961;52.156;20.942;2024-02-14T11:38:11;10.50;52.40
68924;DHT22;55961;52.156;20.942;2024-02-14T11:40:37;10.50;52.00
68924;DHT22;55961;52.156;20.942;2024-02-14T11:43:18;10.50;52.10
68924;DHT22;55961;52.156;20.942;2024-02-14T11:45:44;10.60;53.60
68924;DHT22;55961;52.156;20.942;2024-02-14T11:48:18;10.60;54.40
68924;DHT22;55961;52.156;20.942;2024-02-14T11:50:46;10.70;51.70
68924;DHT22;55961;52.156;20.942;2024-02-14T11:53:14;10.80;50.90
68924;DHT22;55961;52.156;20.942;2024-02-14T11:55:42;10.80;51.70
68924;DHT22;55961;52.156;20.942;2024-02-14T11:58:12;10.80;51.00
68924;DHT22;55961;52.156;20.942;2024-02-14T12:00:40;10.80;52.10
68924;DHT22;55961;52.156;20.942;2024-02-14T12:03:11;10.80;50.50
68924;DHT22;55961;52.156;20.942;2024-02-14T12:05:37;10.80;52.50
68924;DHT22;55961;52.156;20.942;2024-02-14T12:08:07;10.90;53.30
68924;DHT22;55961;52.156;20.942;2024-02-14T12:10:35;10.90;52.90
68924;DHT22;55961;52.156;20.942;2024-02-14T12:13:11;11.00;53.00
68924;DHT22;55961;52.156;20.942;2024-02-14T12:15:41;11.10;51.70
68924;DHT22;55961;52.156;20.942;2024-02-14T12:18:10;11.20;51.10
68924;DHT22;55961;52.156;20.942;2024-02-14T12:20:40;11.30;50.20
68924;DHT22;55961;52.156;20.942;2024-02-14T12:23:06;11.20;51.10
68924;DHT22;55961;52.156;20.942;2024-02-14T12:25:33;11.30;51.20
68924;DHT22;55961;52.156;20.942;2024-02-14T12:28:00;11.30;52.70
68924;DHT22;55961;52.156;20.942;2024-02-14T12:30:42;11.40;50.20
68924;DHT22;55961;52.156;20.942;2024-02-14T12:33:14;11.50;48.60
68924;DHT22;55961;52.156;20.942;2024-02-14T12:35:47;11.50;49.80
68924;DHT22;55961;52.156;20.942;2024-02-14T12:38:15;11.50;49.00
68924;DHT22;55961;52.156;20.942;2024-02-14T12:40:41;11.50;48.10
68924;DHT22;55961;52.156;20.942;2024-02-14T12:43:09;11.50;47.60
68924;DHT22;55961;52.156;20.942;2024-02-14T12:45:35;11.40;48.90
68924;DHT22;55961;52.156;20.942;2024-02-14T12:48:01;11.40;49.10
68924;DHT22;55961;52.156;20.942;2024-02-14T12:50:27;11.30;50.20
68924;DHT22;55961;52.156;20.942;2024-02-14T12:52:53;11.40;50.00
68924;DHT22;55961;52.156;20.942;2024-02-14T12:55:19;11.40;49.90
68924;DHT22;55961;52.156;20.942;2024-02-14T12:57:45;11.50;50.40
68924;DHT22;55961;52.156;20.942;2024-02-14T13:00:12;11.60;48.40
68924;DHT22;55961;52.156;20.942;2024-02-14T13:02:38;11.60;49.40
68924;DHT22;55961;52.156;20.942;2024-02-14T13:05:04;11.50;49.40
68924;DHT22;55961;52.156;20.942;2024-02-14T13:07:31;11.60;49.10
68924;DHT22;55961;52.156;20.942;2024-02-14T13:09:57;11.60;48.90
68924;DHT22;55961;52.156;20.942;2024-02-14T13:12:23;11.50;48.60
68924;DHT22;55961;52.156;20.942;2024-02-14T13:14:49;11.50;47.70
68924;DHT22;55961;52.156;20.942;2024-02-14T13:17:15;11.40;48.60
68924;DHT22;55961;52.156;20.942;2024-02-14T13:19:41;11.30;48.50
68924;DHT22;55961;52.156;20.942;2024-02-14T13:22:09;11.30;47.80
68924;DHT22;55961;52.156;20.942;2024-02-14T13:24:35;11.20;48.50
68924;DHT22;55961;52.156;20.942;2024-02-14T13:27:01;11.10;49.90
68924;DHT22;55961;52.156;20.942;2024-02-14T13:29:27;11.10;48.20
68924;DHT22;55961;52.156;20.942;2024-02-14T13:31:54;11.00;48.30
68924;DHT22;55961;52.156;20.942;2024-02-14T13:34:20;10.90;49.30
68924;DHT22;55961;52.156;20.942;2024-02-14T13:36:49;10.80;48.50
68924;DHT22;55961;52.156;20.942;2024-02-14T13:39:15;10.70;49.50
68924;DHT22;55961;52.156;20.942;2024-02-14T13:41:41;10.70;49.30
68924;DHT22;55961;52.156;20.942;2024-02-14T13:44:10;10.60;48.70
68924;DHT22;55961;52.156;20.942;2024-02-14T13:46:36;10.50;48.10
68924;DHT22;55961;52.156;20.942;2024-02-14T13:49:03;10.50;48.20
68924;DHT22;55961;52.156;20.942;2024-02-14T13:51:29;10.40;48.90
68924;DHT22;55961;52.156;20.942;2024-02-14T13:53:55;10.30;49.00
68924;DHT22;55961;52.156;20.942;2024-02-14T13:56:21;10.30;50.00
68924;DHT22;55961;52.156;20.942;2024-02-14T13:58:51;10.30;49.60
68924;DHT22;55961;52.156;20.942;2024-02-14T14:01:17;10.30;49.70
68924;DHT22;55961;52.156;20.942;2024-02-14T14:03:43;10.20;49.80
68924;DHT22;55961;52.156;20.942;2024-02-14T14:06:09;10.30;50.00
68924;DHT22;55961;52.156;20.942;2024-02-14T14:08:38;10.20;49.70
68924;DHT22;55961;52.156;20.942;2024-02-14T14:11:04;10.20;50.20
68924;DHT22;55961;52.156;20.942;2024-02-14T14:13:39;10.10;51.00
68924;DHT22;55961;52.156;20.942;2024-02-14T14:16:05;10.10;51.70
68924;DHT22;55961;52.156;20.942;2024-02-14T14:18:31;10.10;51.70
68924;DHT22;55961;52.156;20.942;2024-02-14T14:20:58;10.20;51.80
68924;DHT22;55961;52.156;20.942;2024-02-14T14:23:24;10.20;50.50
68924;DHT22;55961;52.156;20.942;2024-02-14T14:25:50;10.20;50.80
68924;DHT22;55961;52.156;20.942;2024-02-14T14:28:16;10.20;51.50
68924;DHT22;55961;52.156;20.942;2024-02-14T14:30:43;10.20;51.30
68924;DHT22;55961;52.156;20.942;2024-02-14T14:33:09;10.20;51.30
68924;DHT22;55961;52.156;20.942;2024-02-14T14:35:36;10.10;50.60
68924;DHT22;55961;52.156;20.942;2024-02-14T14:38:03;10.10;51.20
68924;DHT22;55961;52.156;20.942;2024-02-14T14:40:29;10.00;51.30
68924;DHT22;55961;52.156;20.942;2024-02-14T14:42:55;10.00;50.80
68924;DHT22;55961;52.156;20.942;2024-02-14T14:45:21;9.90;52.00
68924;DHT22;55961;52.156;20.942;2024-02-14T14:47:47;9.90;51.70
68924;DHT22;55961;52.156;20.942;2024-02-14T14:50:15;9.80;52.10
68924;DHT22;55961;52.156;20.942;2024-02-14T14:52:43;9.70;52.80
68924;DHT22;55961;52.156;20.942;2024-02-14T14:55:11;9.70;53.60
68924;DHT22;55961;52.156;20.942;2024-02-14T14:57:37;9.70;54.00
68924;DHT22;55961;52.156;20.942;2024-02-14T15:00:10;9.60;53.80
68924;DHT22;55961;52.156;20.942;2024-02-14T15:02:40;9.60;54.30
68924;DHT22;55961;52.156;20.942;2024-02-14T15:05:11;9.50;54.50
68924;DHT22;55961;52.156;20.942;2024-02-14T15:07:38;9.40;54.30
68924;DHT22;55961;52.156;20.942;2024-02-14T15:10:05;9.30;54.40
68924;DHT22;55961;52.156;20.942;2024-02-14T15:12:31;9.20;55.10
68924;DHT22;55961;52.156;20.942;2024-02-14T15:15:01;9.20;55.60
68924;DHT22;55961;52.156;20.942;2024-02-14T15:17:27;9.10;55.60
68924;DHT22;55961;52.156;20.942;2024-02-14T15:19:55;9.10;56.10
68924;DHT22;55961;52.156;20.942;2024-02-14T15:22:21;9.00;56.40
68924;DHT22;55961;52.156;20.942;2024-02-14T15:24:50;8.90;56.30
68924;DHT22;55961;52.156;20.942;2024-02-14T15:27:17;8.80;56.70
68924;DHT22;55961;52.156;20.942;2024-02-14T15:29:50;8.80;56.90